sensor_id;sensor_type;location;lat;lon;timestamp;P1;durP1;ratioP1;P2;durP2;ratioP2
20832;SDS011;56075;51.264;7.150;2023-04-03T00:00:40;11.33;;;5.50;;
20832;SDS011;56075;51.264;7.150;2023-04-03T00:03:12;10.40;;;4.77;;
20832;SDS011;56075;51.264;7.150;2023-04-03T00:05:43;12.60;;;5.40;;
20832;SDS011;56075;51.264;7.150;2023-04-03T00:08:15;10.17;;;4.90;;
20832;SDS011;56075;51.264;7.150;2023-04-03T00:10:46;11.60;;;5.83;;
20832;SDS011;56075;51.264;7.150;2023-04-03T00:13:18;11.07;;;5.23;;
20832;SDS011;56075;51.264;7.150;2023-04-03T00:15:49;11.07;;;5.27;;
20832;SDS011;56075;51.264;7.150;2023-04-03T00:18:21;9.37;;;5.10;;
20832;SDS011;56075;51.264;7.150;2023-04-03T00:20:52;9.07;;;5.10;;
20832;SDS011;56075;51.264;7.150;2023-04-03T00:23:23;8.70;;;5.20;;
20832;SDS011;56075;51.264;7.150;2023-04-03T00:25:55;12.00;;;5.37;;
20832;SDS011;56075;51.264;7.150;2023-04-03T00:28:26;12.37;;;5.50;;
20832;SDS011;56075;51.264;7.150;2023-04-03T00:30:58;11.97;;;5.30;;
20832;SDS011;56075;51.264;7.150;2023-04-03T00:33:30;9.63;;;4.87;;
20832;SDS011;56075;51.264;7.150;2023-04-03T00:36:05;11.07;;;5.00;;
20832;SDS011;56075;51.264;7.150;2023-04-03T00:38:37;10.73;;;5.87;;
20832;SDS011;56075;51.264;7.150;2023-04-03T00:41:08;14.30;;;5.77;;
20832;SDS011;56075;51.264;7.150;2023-04-03T00:43:40;11.17;;;6.30;;
20832;SDS011;56075;51.264;7.150;2023-04-03T00:46:12;12.93;;;6.27;;
20832;SDS011;56075;51.264;7.150;2023-04-03T00:48:44;10.97;;;5.63;;
20832;SDS011;56075;51.264;7.150;2023-04-03T00:51:19;10.87;;;6.17;;
20832;SDS011;56075;51.264;7.150;2023-04-03T00:54:01;12.67;;;6.50;;
20832;SDS011;56075;51.264;7.150;2023-04-03T00:56:33;13.87;;;7.13;;
20832;SDS011;56075;51.264;7.150;2023-04-03T00:59:15;14.20;;;7.57;;
20832;SDS011;56075;51.264;7.150;2023-04-03T01:01:48;12.97;;;6.83;;
20832;SDS011;56075;51.264;7.150;2023-04-03T01:04:27;11.83;;;6.50;;
20832;SDS011;56075;51.264;7.150;2023-04-03T01:07:10;12.07;;;6.10;;
20832;SDS011;56075;51.264;7.150;2023-04-03T01:09:42;14.23;;;6.13;;
20832;SDS011;56075;51.264;7.150;2023-04-03T01:12:22;14.03;;;6.00;;
20832;SDS011;56075;51.264;7.150;2023-04-03T01:14:58;13.17;;;7.03;;
20832;SDS011;56075;51.264;7.150;2023-04-03T01:17:33;14.57;;;6.97;;
20832;SDS011;56075;51.264;7.150;2023-04-03T01:25:32;14.70;;;7.47;;
20832;SDS011;56075;51.264;7.150;2023-04-03T01:28:05;13.33;;;6.37;;
20832;SDS011;56075;51.264;7.150;2023-04-03T01:30:46;15.93;;;6.57;;
20832;SDS011;56075;51.264;7.150;2023-04-03T01:33:20;15.37;;;7.23;;
20832;SDS011;56075;51.264;7.150;2023-04-03T01:35:52;14.57;;;6.77;;
20832;SDS011;56075;51.264;7.150;2023-04-03T01:38:23;14.13;;;7.13;;
20832;SDS011;56075;51.264;7.150;2023-04-03T01:40:55;13.30;;;6.17;;
20832;SDS011;56075;51.264;7.150;2023-04-03T01:43:27;14.47;;;6.60;;
20832;SDS011;56075;51.264;7.150;2023-04-03T01:45:59;14.40;;;7.07;;
20832;SDS011;56075;51.264;7.150;2023-04-03T01:48:32;14.03;;;7.20;;
20832;SDS011;56075;51.264;7.150;2023-04-03T01:51:03;16.23;;;6.70;;
20832;SDS011;56075;51.264;7.150;2023-04-03T01:53:35;22.13;;;6.83;;
20832;SDS011;56075;51.264;7.150;2023-04-03T01:56:06;15.87;;;7.10;;
20832;SDS011;56075;51.264;7.150;2023-04-03T01:58:38;18.20;;;8.00;;
20832;SDS011;56075;51.264;7.150;2023-04-03T02:01:09;19.77;;;8.13;;
20832;SDS011;56075;51.264;7.150;2023-04-03T02:03:41;16.23;;;8.40;;
20832;SDS011;56075;51.264;7.150;2023-04-03T02:06:19;16.43;;;8.50;;
20832;SDS011;56075;51.264;7.150;2023-04-03T02:08:56;15.77;;;8.23;;
20832;SDS011;56075;51.264;7.150;2023-04-03T02:11:31;17.90;;;8.40;;
20832;SDS011;56075;51.264;7.150;2023-04-03T02:14:02;17.03;;;8.47;;
20832;SDS011;56075;51.264;7.150;2023-04-03T02:16:34;17.57;;;8.97;;
20832;SDS011;56075;51.264;7.150;2023-04-03T02:19:06;20.73;;;9.00;;
20832;SDS011;56075;51.264;7.150;2023-04-03T02:21:37;18.40;;;9.00;;
20832;SDS011;56075;51.264;7.150;2023-04-03T02:24:09;20.00;;;8.77;;
20832;SDS011;56075;51.264;7.150;2023-04-03T02:26:40;21.30;;;9.33;;
20832;SDS011;56075;51.264;7.150;2023-04-03T02:29:12;20.53;;;8.67;;
20832;SDS011;56075;51.264;7.150;2023-04-03T02:31:43;16.83;;;7.30;;
20832;SDS011;56075;51.264;7.150;2023-04-03T02:34:15;14.43;;;6.57;;
20832;SDS011;56075;51.264;7.150;2023-04-03T02:36:46;18.90;;;7.33;;
20832;SDS011;56075;51.264;7.150;2023-04-03T02:39:19;14.03;;;7.03;;
20832;SDS011;56075;51.264;7.150;2023-04-03T02:41:51;17.07;;;7.07;;
20832;SDS011;56075;51.264;7.150;2023-04-03T02:44:27;15.00;;;7.20;;
20832;SDS011;56075;51.264;7.150;2023-04-03T02:46:59;12.60;;;6.30;;
20832;SDS011;56075;51.264;7.150;2023-04-03T02:49:30;12.50;;;6.67;;
20832;SDS011;56075;51.264;7.150;2023-04-03T02:52:02;14.77;;;6.70;;
20832;SDS011;56075;51.264;7.150;2023-04-03T02:54:33;14.23;;;6.83;;
20832;SDS011;56075;51.264;7.150;2023-04-03T02:57:08;13.67;;;5.93;;
20832;SDS011;56075;51.264;7.150;2023-04-03T02:59:40;13.03;;;5.97;;
20832;SDS011;56075;51.264;7.150;2023-04-03T03:02:13;8.57;;;5.37;;
20832;SDS011;56075;51.264;7.150;2023-04-03T03:04:45;12.63;;;6.30;;
20832;SDS011;56075;51.264;7.150;2023-04-03T03:07:16;13.37;;;5.60;;
20832;SDS011;56075;51.264;7.150;2023-04-03T03:09:48;13.37;;;5.70;;
20832;SDS011;56075;51.264;7.150;2023-04-03T03:12:19;9.80;;;5.13;;
20832;SDS011;56075;51.264;7.150;2023-04-03T03:14:52;9.97;;;5.67;;
20832;SDS011;56075;51.264;7.150;2023-04-03T03:17:23;9.13;;;4.93;;
20832;SDS011;56075;51.264;7.150;2023-04-03T03:19:55;10.37;;;5.23;;
20832;SDS011;56075;51.264;7.150;2023-04-03T03:22:27;9.70;;;4.80;;
20832;SDS011;56075;51.264;7.150;2023-04-03T03:24:58;9.83;;;4.60;;
20832;SDS011;56075;51.264;7.150;2023-04-03T03:27:31;9.30;;;4.93;;
20832;SDS011;56075;51.264;7.150;2023-04-03T03:30:04;9.83;;;4.50;;
20832;SDS011;56075;51.264;7.150;2023-04-03T03:32:36;9.47;;;5.00;;
20832;SDS011;56075;51.264;7.150;2023-04-03T03:35:08;11.63;;;5.43;;
20832;SDS011;56075;51.264;7.150;2023-04-03T03:37:39;10.30;;;4.57;;
20832;SDS011;56075;51.264;7.150;2023-04-03T03:40:11;11.57;;;5.53;;
20832;SDS011;56075;51.264;7.150;2023-04-03T03:42:43;10.53;;;4.23;;
20832;SDS011;56075;51.264;7.150;2023-04-03T03:45:15;13.07;;;5.03;;
20832;SDS011;56075;51.264;7.150;2023-04-03T03:47:46;13.13;;;4.90;;
20832;SDS011;56075;51.264;7.150;2023-04-03T03:50:18;11.23;;;4.90;;
20832;SDS011;56075;51.264;7.150;2023-04-03T03:52:50;10.27;;;4.47;;
20832;SDS011;56075;51.264;7.150;2023-04-03T03:55:21;9.37;;;5.03;;
20832;SDS011;56075;51.264;7.150;2023-04-03T03:57:57;10.63;;;4.23;;
20832;SDS011;56075;51.264;7.150;2023-04-03T04:00:29;10.70;;;4.97;;
20832;SDS011;56075;51.264;7.150;2023-04-03T04:03:01;13.37;;;4.93;;
20832;SDS011;56075;51.264;7.150;2023-04-03T04:05:35;10.43;;;4.23;;
20832;SDS011;56075;51.264;7.150;2023-04-03T04:08:07;10.63;;;4.63;;
20832;SDS011;56075;51.264;7.150;2023-04-03T04:10:39;8.37;;;4.00;;
20832;SDS011;56075;51.264;7.150;2023-04-03T04:13:11;7.17;;;4.00;;
20832;SDS011;56075;51.264;7.150;2023-04-03T04:15:43;10.10;;;4.50;;
20832;SDS011;56075;51.264;7.150;2023-04-03T04:18:15;9.30;;;4.33;;
20832;SDS011;56075;51.264;7.150;2023-04-03T04:20:50;8.17;;;4.10;;
20832;SDS011;56075;51.264;7.150;2023-04-03T04:23:22;12.17;;;4.63;;
20832;SDS011;56075;51.264;7.150;2023-04-03T04:25:55;14.33;;;4.43;;
20832;SDS011;56075;51.264;7.150;2023-04-03T04:28:27;11.27;;;4.07;;
20832;SDS011;56075;51.264;7.150;2023-04-03T04:31:01;11.63;;;4.03;;
20832;SDS011;56075;51.264;7.150;2023-04-03T04:33:33;11.17;;;3.70;;
20832;SDS011;56075;51.264;7.150;2023-04-03T04:36:08;8.00;;;3.90;;
20832;SDS011;56075;51.264;7.150;2023-04-03T04:38:40;8.30;;;3.87;;
20832;SDS011;56075;51.264;7.150;2023-04-03T04:41:11;8.13;;;3.87;;
20832;SDS011;56075;51.264;7.150;2023-04-03T04:43:43;9.03;;;4.03;;
20832;SDS011;56075;51.264;7.150;2023-04-03T04:46:14;7.93;;;4.00;;
20832;SDS011;56075;51.264;7.150;2023-04-03T04:48:52;10.43;;;3.93;;
20832;SDS011;56075;51.264;7.150;2023-04-03T04:51:25;10.07;;;3.67;;
20832;SDS011;56075;51.264;7.150;2023-04-03T04:53:57;10.00;;;4.00;;
20832;SDS011;56075;51.264;7.150;2023-04-03T04:56:29;10.90;;;3.80;;
20832;SDS011;56075;51.264;7.150;2023-04-03T04:59:02;8.73;;;3.77;;
20832;SDS011;56075;51.264;7.150;2023-04-03T05:01:33;11.30;;;3.97;;
20832;SDS011;56075;51.264;7.150;2023-04-03T05:04:14;8.87;;;3.60;;
20832;SDS011;56075;51.264;7.150;2023-04-03T05:06:46;7.40;;;3.73;;
20832;SDS011;56075;51.264;7.150;2023-04-03T05:09:22;11.57;;;4.43;;
20832;SDS011;56075;51.264;7.150;2023-04-03T05:11:55;8.20;;;3.70;;
20832;SDS011;56075;51.264;7.150;2023-04-03T05:14:30;14.27;;;4.23;;
20832;SDS011;56075;51.264;7.150;2023-04-03T05:17:06;8.80;;;3.63;;
20832;SDS011;56075;51.264;7.150;2023-04-03T05:19:41;11.77;;;3.90;;
20832;SDS011;56075;51.264;7.150;2023-04-03T05:22:14;9.93;;;3.60;;
20832;SDS011;56075;51.264;7.150;2023-04-03T05:24:45;9.47;;;3.90;;
20832;SDS011;56075;51.264;7.150;2023-04-03T05:27:17;9.47;;;3.77;;
20832;SDS011;56075;51.264;7.150;2023-04-03T05:29:53;8.73;;;3.60;;
20832;SDS011;56075;51.264;7.150;2023-04-03T05:32:26;10.95;;;4.63;;
20832;SDS011;56075;51.264;7.150;2023-04-03T05:35:10;12.27;;;3.50;;
20832;SDS011;56075;51.264;7.150;2023-04-03T05:37:42;9.23;;;3.13;;
20832;SDS011;56075;51.264;7.150;2023-04-03T05:40:13;9.10;;;3.00;;
20832;SDS011;56075;51.264;7.150;2023-04-03T05:42:48;6.97;;;2.80;;
20832;SDS011;56075;51.264;7.150;2023-04-03T05:45:21;7.37;;;2.60;;
20832;SDS011;56075;51.264;7.150;2023-04-03T05:47:52;9.93;;;2.90;;
20832;SDS011;56075;51.264;7.150;2023-04-03T05:50:24;7.07;;;2.53;;
20832;SDS011;56075;51.264;7.150;2023-04-03T05:52:57;7.50;;;2.78;;
20832;SDS011;56075;51.264;7.150;2023-04-03T05:55:32;7.23;;;2.27;;
20832;SDS011;56075;51.264;7.150;2023-04-03T05:58:04;5.57;;;2.33;;
20832;SDS011;56075;51.264;7.150;2023-04-03T06:00:36;5.93;;;2.13;;
20832;SDS011;56075;51.264;7.150;2023-04-03T06:03:07;6.40;;;2.20;;
20832;SDS011;56075;51.264;7.150;2023-04-03T06:05:39;5.30;;;1.80;;
20832;SDS011;56075;51.264;7.150;2023-04-03T06:08:12;4.73;;;1.87;;
20832;SDS011;56075;51.264;7.150;2023-04-03T06:10:44;5.00;;;1.90;;
20832;SDS011;56075;51.264;7.150;2023-04-03T06:13:16;4.50;;;1.77;;
20832;SDS011;56075;51.264;7.150;2023-04-03T06:15:48;4.03;;;1.83;;
20832;SDS011;56075;51.264;7.150;2023-04-03T06:18:20;5.80;;;1.90;;
20832;SDS011;56075;51.264;7.150;2023-04-03T06:20:52;4.50;;;1.43;;
20832;SDS011;56075;51.264;7.150;2023-04-03T06:23:24;3.93;;;1.93;;
20832;SDS011;56075;51.264;7.150;2023-04-03T06:25:55;5.77;;;1.67;;
20832;SDS011;56075;51.264;7.150;2023-04-03T06:28:27;7.03;;;1.87;;
20832;SDS011;56075;51.264;7.150;2023-04-03T06:30:58;6.23;;;1.60;;
20832;SDS011;56075;51.264;7.150;2023-04-03T06:33:30;2.97;;;1.63;;
20832;SDS011;56075;51.264;7.150;2023-04-03T06:36:03;6.00;;;1.77;;
20832;SDS011;56075;51.264;7.150;2023-04-03T06:38:35;5.40;;;1.90;;
20832;SDS011;56075;51.264;7.150;2023-04-03T06:41:06;4.33;;;1.57;;
20832;SDS011;56075;51.264;7.150;2023-04-03T06:43:38;3.57;;;1.60;;
20832;SDS011;56075;51.264;7.150;2023-04-03T06:46:20;3.00;;;1.33;;
20832;SDS011;56075;51.264;7.150;2023-04-03T06:48:52;6.30;;;1.50;;
20832;SDS011;56075;51.264;7.150;2023-04-03T06:51:25;6.07;;;1.73;;
20832;SDS011;56075;51.264;7.150;2023-04-03T06:53:58;4.33;;;1.57;;
20832;SDS011;56075;51.264;7.150;2023-04-03T06:56:30;5.33;;;1.40;;
20832;SDS011;56075;51.264;7.150;2023-04-03T06:59:01;7.57;;;1.67;;
20832;SDS011;56075;51.264;7.150;2023-04-03T07:01:33;5.27;;;1.70;;
20832;SDS011;56075;51.264;7.150;2023-04-03T07:04:05;4.60;;;1.80;;
20832;SDS011;56075;51.264;7.150;2023-04-03T07:06:36;6.37;;;1.80;;
20832;SDS011;56075;51.264;7.150;2023-04-03T07:09:08;6.90;;;1.73;;
20832;SDS011;56075;51.264;7.150;2023-04-03T07:11:41;4.07;;;1.37;;
20832;SDS011;56075;51.264;7.150;2023-04-03T07:14:12;6.33;;;1.50;;
20832;SDS011;56075;51.264;7.150;2023-04-03T07:16:44;4.20;;;1.33;;
20832;SDS011;56075;51.264;7.150;2023-04-03T07:19:15;5.43;;;1.20;;
20832;SDS011;56075;51.264;7.150;2023-04-03T07:21:48;2.73;;;1.30;;
20832;SDS011;56075;51.264;7.150;2023-04-03T07:24:20;9.93;;;1.77;;
20832;SDS011;56075;51.264;7.150;2023-04-03T07:26:52;6.57;;;1.40;;
20832;SDS011;56075;51.264;7.150;2023-04-03T07:29:23;4.23;;;1.33;;
20832;SDS011;56075;51.264;7.150;2023-04-03T07:31:55;5.00;;;1.43;;
20832;SDS011;56075;51.264;7.150;2023-04-03T07:34:27;3.73;;;1.00;;
20832;SDS011;56075;51.264;7.150;2023-04-03T07:36:58;3.57;;;1.20;;
20832;SDS011;56075;51.264;7.150;2023-04-03T07:39:30;5.17;;;1.30;;
20832;SDS011;56075;51.264;7.150;2023-04-03T07:42:02;5.07;;;1.30;;
20832;SDS011;56075;51.264;7.150;2023-04-03T07:44:33;3.90;;;1.60;;
20832;SDS011;56075;51.264;7.150;2023-04-03T07:47:05;2.70;;;1.10;;
20832;SDS011;56075;51.264;7.150;2023-04-03T07:49:39;5.43;;;1.30;;
20832;SDS011;56075;51.264;7.150;2023-04-03T07:52:10;4.73;;;1.50;;
20832;SDS011;56075;51.264;7.150;2023-04-03T07:54:42;5.83;;;1.50;;
20832;SDS011;56075;51.264;7.150;2023-04-03T07:57:14;2.53;;;1.07;;
20832;SDS011;56075;51.264;7.150;2023-04-03T07:59:45;4.70;;;1.37;;
20832;SDS011;56075;51.264;7.150;2023-04-03T08:02:17;4.30;;;1.20;;
20832;SDS011;56075;51.264;7.150;2023-04-03T08:04:49;9.97;;;1.30;;
20832;SDS011;56075;51.264;7.150;2023-04-03T08:07:20;3.47;;;1.30;;
20832;SDS011;56075;51.264;7.150;2023-04-03T08:09:52;3.40;;;1.30;;
20832;SDS011;56075;51.264;7.150;2023-04-03T08:12:23;4.10;;;0.90;;
20832;SDS011;56075;51.264;7.150;2023-04-03T08:14:55;6.47;;;1.20;;
20832;SDS011;56075;51.264;7.150;2023-04-03T08:17:26;2.73;;;1.07;;
20832;SDS011;56075;51.264;7.150;2023-04-03T08:19:58;6.23;;;1.13;;
20832;SDS011;56075;51.264;7.150;2023-04-03T08:22:29;3.73;;;1.00;;
20832;SDS011;56075;51.264;7.150;2023-04-03T08:25:01;5.80;;;1.47;;
20832;SDS011;56075;51.264;7.150;2023-04-03T08:27:33;2.80;;;1.00;;
20832;SDS011;56075;51.264;7.150;2023-04-03T08:30:04;5.07;;;1.13;;
20832;SDS011;56075;51.264;7.150;2023-04-03T08:32:36;6.77;;;1.13;;
20832;SDS011;56075;51.264;7.150;2023-04-03T08:35:08;3.93;;;1.03;;
20832;SDS011;56075;51.264;7.150;2023-04-03T08:37:40;6.53;;;1.10;;
20832;SDS011;56075;51.264;7.150;2023-04-03T08:40:15;3.87;;;1.20;;
20832;SDS011;56075;51.264;7.150;2023-04-03T08:45:21;2.77;;;0.97;;
20832;SDS011;56075;51.264;7.150;2023-04-03T08:50:33;5.73;;;1.33;;
20832;SDS011;56075;51.264;7.150;2023-04-03T08:53:05;3.43;;;0.90;;
20832;SDS011;56075;51.264;7.150;2023-04-03T08:55:39;5.70;;;0.97;;
20832;SDS011;56075;51.264;7.150;2023-04-03T08:58:24;4.20;;;0.93;;
20832;SDS011;56075;51.264;7.150;2023-04-03T09:01:03;4.13;;;0.90;;
20832;SDS011;56075;51.264;7.150;2023-04-03T09:03:36;3.87;;;1.17;;
20832;SDS011;56075;51.264;7.150;2023-04-03T09:06:20;2.97;;;0.90;;
20832;SDS011;56075;51.264;7.150;2023-04-03T09:11:25;5.50;;;1.00;;
20832;SDS011;56075;51.264;7.150;2023-04-03T09:17:09;4.20;;;0.80;;
20832;SDS011;56075;51.264;7.150;2023-04-03T09:22:40;5.23;;;1.20;;
20832;SDS011;56075;51.264;7.150;2023-04-03T09:25:13;4.90;;;1.20;;
20832;SDS011;56075;51.264;7.150;2023-04-03T09:27:47;2.30;;;0.80;;
20832;SDS011;56075;51.264;7.150;2023-04-03T09:30:19;2.00;;;0.97;;
20832;SDS011;56075;51.264;7.150;2023-04-03T09:32:52;2.90;;;0.83;;
20832;SDS011;56075;51.264;7.150;2023-04-03T09:35:26;1.93;;;0.83;;
20832;SDS011;56075;51.264;7.150;2023-04-03T09:40:37;6.60;;;1.00;;
20832;SDS011;56075;51.264;7.150;2023-04-03T09:46:16;3.27;;;1.00;;
20832;SDS011;56075;51.264;7.150;2023-04-03T09:49:08;2.27;;;1.07;;
20832;SDS011;56075;51.264;7.150;2023-04-03T09:51:42;3.57;;;1.07;;
20832;SDS011;56075;51.264;7.150;2023-04-03T09:57:03;3.83;;;1.00;;
20832;SDS011;56075;51.264;7.150;2023-04-03T09:59:36;3.33;;;1.00;;
20832;SDS011;56075;51.264;7.150;2023-04-03T10:02:21;3.27;;;0.80;;
20832;SDS011;56075;51.264;7.150;2023-04-03T10:04:53;2.77;;;1.10;;
20832;SDS011;56075;51.264;7.150;2023-04-03T10:07:35;2.27;;;0.77;;
20832;SDS011;56075;51.264;7.150;2023-04-03T10:10:25;4.93;;;0.87;;
20832;SDS011;56075;51.264;7.150;2023-04-03T10:13:06;3.33;;;1.17;;
20832;SDS011;56075;51.264;7.150;2023-04-03T10:15:39;2.17;;;0.90;;
20832;SDS011;56075;51.264;7.150;2023-04-03T10:20:54;1.73;;;0.60;;
20832;SDS011;56075;51.264;7.150;2023-04-03T10:23:33;4.23;;;1.50;;
20832;SDS011;56075;51.264;7.150;2023-04-03T10:29:05;1.83;;;0.70;;
20832;SDS011;56075;51.264;7.150;2023-04-03T10:32:06;2.83;;;1.27;;
20832;SDS011;56075;51.264;7.150;2023-04-03T10:34:51;2.13;;;0.40;;
20832;SDS011;56075;51.264;7.150;2023-04-03T10:39:57;0.93;;;0.50;;
20832;SDS011;56075;51.264;7.150;2023-04-03T10:42:42;3.93;;;1.00;;
20832;SDS011;56075;51.264;7.150;2023-04-03T10:54:04;1.17;;;0.57;;
20832;SDS011;56075;51.264;7.150;2023-04-03T10:56:42;4.13;;;0.50;;
20832;SDS011;56075;51.264;7.150;2023-04-03T11:01:58;1.00;;;0.47;;
20832;SDS011;56075;51.264;7.150;2023-04-03T11:04:31;2.07;;;0.67;;
20832;SDS011;56075;51.264;7.150;2023-04-03T11:07:10;1.00;;;0.43;;
20832;SDS011;56075;51.264;7.150;2023-04-03T11:09:48;4.07;;;0.67;;
20832;SDS011;56075;51.264;7.150;2023-04-03T11:12:24;2.17;;;0.70;;
20832;SDS011;56075;51.264;7.150;2023-04-03T11:15:12;2.20;;;0.67;;
20832;SDS011;56075;51.264;7.150;2023-04-03T11:17:54;1.53;;;0.53;;
20832;SDS011;56075;51.264;7.150;2023-04-03T11:20:33;0.90;;;0.50;;
20832;SDS011;56075;51.264;7.150;2023-04-03T11:26:07;2.20;;;0.50;;
20832;SDS011;56075;51.264;7.150;2023-04-03T11:28:40;2.97;;;0.57;;
20832;SDS011;56075;51.264;7.150;2023-04-03T11:33:58;1.33;;;0.53;;
20832;SDS011;56075;51.264;7.150;2023-04-03T11:36:46;2.33;;;0.50;;
20832;SDS011;56075;51.264;7.150;2023-04-03T11:39:26;3.50;;;0.67;;
20832;SDS011;56075;51.264;7.150;2023-04-03T11:42:14;1.30;;;0.73;;
20832;SDS011;56075;51.264;7.150;2023-04-03T11:45:16;3.87;;;1.00;;
20832;SDS011;56075;51.264;7.150;2023-04-03T11:47:54;3.30;;;0.47;;
20832;SDS011;56075;51.264;7.150;2023-04-03T11:50:45;2.67;;;0.83;;
20832;SDS011;56075;51.264;7.150;2023-04-03T11:58:22;2.60;;;0.70;;
20832;SDS011;56075;51.264;7.150;2023-04-03T12:00:56;3.63;;;0.88;;
20832;SDS011;56075;51.264;7.150;2023-04-03T12:11:24;3.10;;;0.85;;
20832;SDS011;56075;51.264;7.150;2023-04-03T12:14:02;1.77;;;0.70;;
20832;SDS011;56075;51.264;7.150;2023-04-03T12:22:15;4.13;;;0.90;;
20832;SDS011;56075;51.264;7.150;2023-04-03T12:24:48;3.83;;;0.50;;
20832;SDS011;56075;51.264;7.150;2023-04-03T12:27:24;2.30;;;0.70;;
20832;SDS011;56075;51.264;7.150;2023-04-03T12:32:43;2.03;;;0.70;;
20832;SDS011;56075;51.264;7.150;2023-04-03T12:38:38;2.58;;;0.82;;
20832;SDS011;56075;51.264;7.150;2023-04-03T12:46:59;1.73;;;0.70;;
20832;SDS011;56075;51.264;7.150;2023-04-03T12:49:37;4.18;;;0.80;;
20832;SDS011;56075;51.264;7.150;2023-04-03T12:52:16;3.22;;;0.80;;
20832;SDS011;56075;51.264;7.150;2023-04-03T12:55:24;3.47;;;1.00;;
20832;SDS011;56075;51.264;7.150;2023-04-03T12:57:55;3.65;;;0.73;;
20832;SDS011;56075;51.264;7.150;2023-04-03T13:00:36;2.22;;;0.90;;
20832;SDS011;56075;51.264;7.150;2023-04-03T13:03:50;1.60;;;0.80;;
20832;SDS011;56075;51.264;7.150;2023-04-03T13:06:46;3.70;;;0.88;;
20832;SDS011;56075;51.264;7.150;2023-04-03T13:09:25;1.92;;;0.80;;
20832;SDS011;56075;51.264;7.150;2023-04-03T13:12:00;2.20;;;0.80;;
20832;SDS011;56075;51.264;7.150;2023-04-03T13:14:57;4.13;;;0.80;;
20832;SDS011;56075;51.264;7.150;2023-04-03T13:17:38;4.35;;;0.82;;
20832;SDS011;56075;51.264;7.150;2023-04-03T13:20:15;3.80;;;1.00;;
20832;SDS011;56075;51.264;7.150;2023-04-03T13:23:00;2.17;;;0.77;;
20832;SDS011;56075;51.264;7.150;2023-04-03T13:25:40;1.75;;;0.80;;
20832;SDS011;56075;51.264;7.150;2023-04-03T13:28:15;2.38;;;0.90;;
20832;SDS011;56075;51.264;7.150;2023-04-03T13:30:55;4.85;;;0.95;;
20832;SDS011;56075;51.264;7.150;2023-04-03T13:33:34;1.92;;;0.77;;
20832;SDS011;56075;51.264;7.150;2023-04-03T13:36:54;2.33;;;0.90;;
20832;SDS011;56075;51.264;7.150;2023-04-03T13:39:19;2.33;;;0.80;;
20832;SDS011;56075;51.264;7.150;2023-04-03T13:41:59;3.95;;;1.20;;
20832;SDS011;56075;51.264;7.150;2023-04-03T13:44:36;2.58;;;0.77;;
20832;SDS011;56075;51.264;7.150;2023-04-03T13:47:14;2.17;;;0.70;;
20832;SDS011;56075;51.264;7.150;2023-04-03T13:52:52;2.10;;;0.85;;
20832;SDS011;56075;51.264;7.150;2023-04-03T13:55:26;3.10;;;0.85;;
20832;SDS011;56075;51.264;7.150;2023-04-03T13:58:18;4.68;;;0.90;;
20832;SDS011;56075;51.264;7.150;2023-04-03T14:01:10;3.20;;;0.70;;
20832;SDS011;56075;51.264;7.150;2023-04-03T14:03:52;2.47;;;0.93;;
20832;SDS011;56075;51.264;7.150;2023-04-03T14:06:24;1.75;;;0.80;;
20832;SDS011;56075;51.264;7.150;2023-04-03T14:08:56;3.33;;;1.20;;
20832;SDS011;56075;51.264;7.150;2023-04-03T14:11:29;4.97;;;1.08;;
20832;SDS011;56075;51.264;7.150;2023-04-03T14:14:03;5.75;;;1.10;;
20832;SDS011;56075;51.264;7.150;2023-04-03T14:16:53;2.83;;;0.93;;
20832;SDS011;56075;51.264;7.150;2023-04-03T14:22:18;3.53;;;0.90;;
20832;SDS011;56075;51.264;7.150;2023-04-03T14:24:54;2.45;;;0.80;;
20832;SDS011;56075;51.264;7.150;2023-04-03T14:27:37;4.50;;;0.77;;
20832;SDS011;56075;51.264;7.150;2023-04-03T14:30:17;2.22;;;1.00;;
20832;SDS011;56075;51.264;7.150;2023-04-03T14:32:52;5.13;;;0.95;;
20832;SDS011;56075;51.264;7.150;2023-04-03T14:35:24;4.47;;;0.77;;
20832;SDS011;56075;51.264;7.150;2023-04-03T14:37:55;4.40;;;0.90;;
20832;SDS011;56075;51.264;7.150;2023-04-03T14:40:27;3.08;;;1.08;;
20832;SDS011;56075;51.264;7.150;2023-04-03T14:42:58;3.00;;;1.08;;
20832;SDS011;56075;51.264;7.150;2023-04-03T14:45:29;10.80;;;1.27;;
20832;SDS011;56075;51.264;7.150;2023-04-03T14:48:01;2.97;;;0.93;;
20832;SDS011;56075;51.264;7.150;2023-04-03T14:50:33;3.00;;;1.00;;
20832;SDS011;56075;51.264;7.150;2023-04-03T14:53:04;3.10;;;1.10;;
20832;SDS011;56075;51.264;7.150;2023-04-03T14:55:36;2.80;;;0.90;;
20832;SDS011;56075;51.264;7.150;2023-04-03T14:58:08;2.75;;;0.80;;
20832;SDS011;56075;51.264;7.150;2023-04-03T15:00:43;3.30;;;1.00;;
20832;SDS011;56075;51.264;7.150;2023-04-03T15:03:16;2.17;;;0.68;;
20832;SDS011;56075;51.264;7.150;2023-04-03T15:05:49;3.90;;;0.80;;
20832;SDS011;56075;51.264;7.150;2023-04-03T15:08:22;5.32;;;1.05;;
20832;SDS011;56075;51.264;7.150;2023-04-03T15:10:55;4.20;;;1.00;;
20832;SDS011;56075;51.264;7.150;2023-04-03T15:13:27;3.75;;;1.10;;
20832;SDS011;56075;51.264;7.150;2023-04-03T15:15:58;3.75;;;1.00;;
20832;SDS011;56075;51.264;7.150;2023-04-03T15:18:31;3.00;;;0.90;;
20832;SDS011;56075;51.264;7.150;2023-04-03T15:21:07;1.70;;;0.80;;
20832;SDS011;56075;51.264;7.150;2023-04-03T15:23:39;3.65;;;0.93;;
20832;SDS011;56075;51.264;7.150;2023-04-03T15:26:10;2.92;;;1.02;;
20832;SDS011;56075;51.264;7.150;2023-04-03T15:28:41;2.25;;;0.95;;
20832;SDS011;56075;51.264;7.150;2023-04-03T15:31:14;3.08;;;1.00;;
20832;SDS011;56075;51.264;7.150;2023-04-03T15:33:45;2.15;;;1.00;;
20832;SDS011;56075;51.264;7.150;2023-04-03T15:36:16;3.97;;;0.95;;
20832;SDS011;56075;51.264;7.150;2023-04-03T15:38:48;3.50;;;1.50;;
20832;SDS011;56075;51.264;7.150;2023-04-03T15:41:19;2.88;;;1.00;;
20832;SDS011;56075;51.264;7.150;2023-04-03T15:43:50;7.00;;;1.10;;
20832;SDS011;56075;51.264;7.150;2023-04-03T15:46:21;2.70;;;0.88;;
20832;SDS011;56075;51.264;7.150;2023-04-03T15:48:52;3.63;;;1.10;;
20832;SDS011;56075;51.264;7.150;2023-04-03T15:51:23;3.03;;;0.90;;
20832;SDS011;56075;51.264;7.150;2023-04-03T15:53:55;4.70;;;0.98;;
20832;SDS011;56075;51.264;7.150;2023-04-03T15:56:26;3.20;;;1.15;;
20832;SDS011;56075;51.264;7.150;2023-04-03T15:58:57;5.25;;;1.17;;
20832;SDS011;56075;51.264;7.150;2023-04-03T16:01:28;5.70;;;1.67;;
20832;SDS011;56075;51.264;7.150;2023-04-03T16:03:59;6.85;;;1.67;;
20832;SDS011;56075;51.264;7.150;2023-04-03T16:06:31;5.10;;;1.13;;
20832;SDS011;56075;51.264;7.150;2023-04-03T16:09:04;4.15;;;1.45;;
20832;SDS011;56075;51.264;7.150;2023-04-03T16:11:35;2.30;;;1.02;;
20832;SDS011;56075;51.264;7.150;2023-04-03T16:14:10;3.53;;;1.20;;
20832;SDS011;56075;51.264;7.150;2023-04-03T16:16:41;3.38;;;1.13;;
20832;SDS011;56075;51.264;7.150;2023-04-03T16:19:13;5.03;;;1.30;;
20832;SDS011;56075;51.264;7.150;2023-04-03T16:21:44;3.28;;;1.00;;
20832;SDS011;56075;51.264;7.150;2023-04-03T16:24:16;2.15;;;1.10;;
20832;SDS011;56075;51.264;7.150;2023-04-03T16:26:47;4.03;;;1.15;;
20832;SDS011;56075;51.264;7.150;2023-04-03T16:29:18;4.30;;;1.30;;
20832;SDS011;56075;51.264;7.150;2023-04-03T16:31:49;3.72;;;1.10;;
20832;SDS011;56075;51.264;7.150;2023-04-03T16:34:22;5.18;;;1.40;;
20832;SDS011;56075;51.264;7.150;2023-04-03T16:36:53;3.97;;;1.17;;
20832;SDS011;56075;51.264;7.150;2023-04-03T16:39:25;2.63;;;1.05;;
20832;SDS011;56075;51.264;7.150;2023-04-03T16:41:56;3.55;;;1.00;;
20832;SDS011;56075;51.264;7.150;2023-04-03T16:44:27;5.80;;;1.02;;
20832;SDS011;56075;51.264;7.150;2023-04-03T16:46:58;5.18;;;1.40;;
20832;SDS011;56075;51.264;7.150;2023-04-03T16:49:29;4.88;;;1.20;;
20832;SDS011;56075;51.264;7.150;2023-04-03T16:52:03;3.72;;;1.10;;
20832;SDS011;56075;51.264;7.150;2023-04-03T16:54:35;2.60;;;1.10;;